createdAt,value
2018-09-29T00:00:07.136Z,67.62
2018-09-29T00:02:35.171Z,67.19
2018-09-29T00:05:03.067Z,67.07
2018-09-29T00:07:30.869Z,66.87
2018-09-29T00:09:58.702Z,66.59
2018-09-29T00:12:26.635Z,65.95
2018-09-29T00:14:54.427Z,66.73
2018-09-29T00:17:22.447Z,65.97
2018-09-29T00:19:50.232Z,65.94
2018-09-29T00:22:18.023Z,65.39
2018-09-29T00:24:45.827Z,65.73
2018-09-29T00:27:13.607Z,65.54
2018-09-29T00:29:44.904Z,65.52
2018-09-29T00:32:12.757Z,64.46
2018-09-29T00:34:40.563Z,65.20
2018-09-29T00:37:08.391Z,64.50
2018-09-29T00:39:36.183Z,64.73
2018-09-29T00:42:04.028Z,64.01
2018-09-29T00:44:31.821Z,64.03
2018-09-29T00:46:59.616Z,63.44
2018-09-29T00:49:27.436Z,64.33
2018-09-29T00:51:55.218Z,63.56
2018-09-29T00:54:23.053Z,63.06
2018-09-29T00:56:51.138Z,63.27
2018-09-29T00:59:18.936Z,63.23
2018-09-29T01:01:46.747Z,63.27
2018-09-29T01:04:14.530Z,63.69
2018-09-29T01:06:42.334Z,63.75
2018-09-29T01:09:10.166Z,63.23
2018-09-29T01:11:38.087Z,63.42
2018-09-29T01:14:06.002Z,62.88
2018-09-29T01:16:33.804Z,62.90
2018-09-29T01:19:01.701Z,62.97
2018-09-29T01:21:29.534Z,62.67
2018-09-29T01:23:57.329Z,63.07
2018-09-29T01:26:25.126Z,63.29
2018-09-29T01:28:52.912Z,62.99
2018-09-29T01:31:20.703Z,62.90
2018-09-29T01:33:48.542Z,62.67
2018-09-29T01:36:16.307Z,62.79
2018-09-29T01:38:44.079Z,62.38
2018-09-29T01:41:11.867Z,62.35
2018-09-29T01:43:39.720Z,62.83
2018-09-29T01:46:07.541Z,63.07
2018-09-29T01:48:35.360Z,62.58
2018-09-29T01:51:03.147Z,62.53
2018-09-29T01:53:30.991Z,62.13
2018-09-29T01:55:58.775Z,62.02
2018-09-29T01:58:27.114Z,62.90
2018-09-29T02:00:54.891Z,62.49
2018-09-29T02:03:22.891Z,62.29
2018-09-29T02:05:50.694Z,62.25
2018-09-29T02:08:18.483Z,62.26
2018-09-29T02:10:46.331Z,63.08
2018-09-29T02:13:14.155Z,62.98
2018-09-29T02:15:41.927Z,62.67
2018-09-29T02:18:09.674Z,62.96
2018-09-29T02:20:37.554Z,62.44
2018-09-29T02:23:06.299Z,62.46
2018-09-29T02:25:34.192Z,62.08
2018-09-29T02:28:05.327Z,61.35
2018-09-29T02:30:33.348Z,61.69
2018-09-29T02:33:01.303Z,62.03
2018-09-29T02:35:29.169Z,61.62
2018-09-29T02:37:56.910Z,61.15
2018-09-29T02:40:24.803Z,61.18
2018-09-29T02:42:52.567Z,61.25
2018-09-29T02:45:20.627Z,60.46
2018-09-29T02:47:48.403Z,60.70
2018-09-29T02:50:16.177Z,61.56
2018-09-29T02:52:43.992Z,61.50
2018-09-29T02:55:11.774Z,61.19
2018-09-29T02:57:39.591Z,61.39
2018-09-29T03:00:07.439Z,62.28
2018-09-29T03:02:35.209Z,62.66
2018-09-29T03:08:39.655Z,62.45
2018-09-29T03:11:14.418Z,62.22
2018-09-29T03:13:42.212Z,62.34
2018-09-29T03:16:10.043Z,62.48
2018-09-29T03:18:37.828Z,62.49
2018-09-29T03:21:06.324Z,62.21
2018-09-29T03:23:34.119Z,61.85
2018-09-29T03:26:01.887Z,62.44
2018-09-29T03:28:29.691Z,62.75
2018-09-29T03:30:57.762Z,62.69
2018-09-29T03:33:25.601Z,62.59
2018-09-29T03:35:53.405Z,62.89
2018-09-29T03:38:21.169Z,63.51
2018-09-29T03:40:48.958Z,63.59
2018-09-29T03:43:16.744Z,63.85
2018-09-29T03:45:44.547Z,63.50
2018-09-29T03:48:12.803Z,63.46
2018-09-29T03:50:40.591Z,63.31
2018-09-29T03:53:08.391Z,63.13
2018-09-29T03:55:36.401Z,63.32
2018-09-29T03:58:04.312Z,63.18
2018-09-29T04:00:32.108Z,62.81
2018-09-29T04:03:02.756Z,63.86
2018-09-29T04:05:30.543Z,63.93
2018-09-29T04:07:58.335Z,63.69
2018-09-29T04:10:26.268Z,63.46
2018-09-29T04:12:58.329Z,63.82
2018-09-29T04:15:26.127Z,64.62
2018-09-29T04:17:53.926Z,64.80
2018-09-29T04:20:21.783Z,64.25
2018-09-29T04:22:49.891Z,64.83
2018-09-29T04:25:17.802Z,64.16
2018-09-29T04:27:45.599Z,64.46
2018-09-29T04:30:13.888Z,64.91
2018-09-29T04:32:41.730Z,64.47
2018-09-29T04:35:09.520Z,64.41
2018-09-29T04:37:37.471Z,63.91
2018-09-29T04:40:05.556Z,63.80
2018-09-29T04:42:33.311Z,64.10
2018-09-29T04:45:01.609Z,63.69
2018-09-29T04:47:29.430Z,63.89
2018-09-29T04:49:57.331Z,64.38
2018-09-29T04:52:25.415Z,63.81
2018-09-29T04:54:53.238Z,63.68
2018-09-29T04:57:21.012Z,63.57
2018-09-29T04:59:48.835Z,63.25
2018-09-29T05:02:16.755Z,63.55
2018-09-29T05:04:44.904Z,63.49
2018-09-29T05:07:12.769Z,63.74
2018-09-29T05:09:40.579Z,64.08
2018-09-29T05:12:08.686Z,63.83
2018-09-29T05:14:36.436Z,63.37
2018-09-29T05:17:04.271Z,63.33
2018-09-29T05:19:32.251Z,63.65
2018-09-29T05:22:00.052Z,63.59
2018-09-29T05:24:28.190Z,63.36
2018-09-29T05:26:56.275Z,63.25
2018-09-29T05:29:24.152Z,63.67
2018-09-29T05:31:51.971Z,64.26
2018-09-29T05:34:19.754Z,64.06
2018-09-29T05:36:47.581Z,63.86
2018-09-29T05:39:15.384Z,63.96
2018-09-29T05:41:43.246Z,64.45
2018-09-29T05:44:11.042Z,64.04
2018-09-29T05:46:38.846Z,65.23
2018-09-29T05:49:07.211Z,65.50
2018-09-29T05:51:35.021Z,65.16
2018-09-29T05:54:02.873Z,65.53
2018-09-29T05:56:30.866Z,65.51
2018-09-29T05:58:58.677Z,66.00
2018-09-29T06:01:26.628Z,66.29
2018-09-29T06:03:57.719Z,65.85
2018-09-29T06:06:25.514Z,65.10
2018-09-29T06:08:53.331Z,64.59
2018-09-29T06:11:21.216Z,64.75
2018-09-29T06:13:49.620Z,64.77
2018-09-29T06:16:17.516Z,64.93
2018-09-29T06:18:45.302Z,65.18
2018-09-29T06:21:13.131Z,64.49
2018-09-29T06:23:41.014Z,63.33
2018-09-29T06:26:08.858Z,63.07
2018-09-29T06:28:36.759Z,62.86
2018-09-29T06:31:04.570Z,62.84
2018-09-29T06:33:32.435Z,63.41
2018-09-29T06:36:00.417Z,63.00
2018-09-29T06:38:28.200Z,63.19
2018-09-29T06:40:56.122Z,62.91
2018-09-29T06:43:23.889Z,63.00
2018-09-29T06:45:51.795Z,62.95
2018-09-29T06:48:19.718Z,61.61
2018-09-29T06:50:47.824Z,60.97
2018-09-29T06:53:15.583Z,61.87
2018-09-29T06:55:43.411Z,61.63
2018-09-29T06:58:11.263Z,61.56
2018-09-29T07:00:39.011Z,61.34
2018-09-29T07:03:06.863Z,61.12
2018-09-29T07:05:34.720Z,60.76
2018-09-29T07:08:02.507Z,60.58
2018-09-29T07:10:30.543Z,59.30
2018-09-29T07:12:58.381Z,60.14
2018-09-29T07:15:26.275Z,59.64
2018-09-29T07:17:54.022Z,59.40
2018-09-29T07:20:21.819Z,58.50
2018-09-29T07:22:49.599Z,58.60
2018-09-29T07:25:17.469Z,58.12
2018-09-29T07:27:45.287Z,57.62
2018-09-29T07:30:13.226Z,56.94
2018-09-29T07:32:41.070Z,57.65
2018-09-29T07:35:09.355Z,57.52
2018-09-29T07:37:40.131Z,56.67
2018-09-29T07:40:07.953Z,56.05
2018-09-29T07:42:35.711Z,56.39
2018-09-29T07:45:03.648Z,56.55
2018-09-29T07:47:31.438Z,56.35
2018-09-29T07:49:59.307Z,55.96
2018-09-29T07:52:27.128Z,54.92
2018-09-29T07:54:54.979Z,54.18
2018-09-29T07:57:22.727Z,54.00
2018-09-29T07:59:50.598Z,53.22
2018-09-29T08:02:18.391Z,54.09
2018-09-29T08:04:46.191Z,53.22
2018-09-29T08:07:14.017Z,53.10
2018-09-29T08:09:41.835Z,52.66
2018-09-29T08:12:09.758Z,51.94
2018-09-29T08:14:38.086Z,52.07
2018-09-29T08:17:05.968Z,51.30
2018-09-29T08:19:33.758Z,50.06
2018-09-29T08:22:01.723Z,49.63
2018-09-29T08:24:29.627Z,49.91
2018-09-29T08:26:57.472Z,49.77
2018-09-29T08:29:25.274Z,48.79
2018-09-29T08:31:53.136Z,47.86
2018-09-29T08:34:20.959Z,48.41
2018-09-29T08:36:48.753Z,46.62
2018-09-29T08:39:16.591Z,47.25
2018-09-29T08:41:44.412Z,46.43
2018-09-29T08:44:12.261Z,46.87
2018-09-29T08:46:40.009Z,45.07
2018-09-29T08:49:07.907Z,44.70
2018-09-29T08:51:35.800Z,44.64
2018-09-29T08:54:03.666Z,44.62
2018-09-29T08:56:31.442Z,44.44
2018-09-29T08:58:59.242Z,44.00
2018-09-29T09:01:27.023Z,44.20
2018-09-29T09:03:54.848Z,45.00
2018-09-29T09:06:22.653Z,44.53
2018-09-29T09:08:50.513Z,44.78
2018-09-29T09:11:18.411Z,42.52
2018-09-29T09:13:46.192Z,41.80
2018-09-29T09:16:14.207Z,40.06
2018-09-29T09:18:41.971Z,41.57
2018-09-29T09:21:10.337Z,40.12
2018-09-29T09:23:38.152Z,40.55
2018-09-29T09:26:06.135Z,40.25
2018-09-29T09:28:34.251Z,40.21
2018-09-29T09:31:02.171Z,40.23
2018-09-29T09:33:30.011Z,52.81
2018-09-29T09:35:57.847Z,53.56
2018-09-29T09:38:25.671Z,47.17
2018-09-29T09:40:53.821Z,47.51
2018-09-29T09:43:21.622Z,47.98
2018-09-29T09:45:49.450Z,45.83
2018-09-29T09:50:50.990Z,44.66
2018-09-29T09:53:22.067Z,44.84
2018-09-29T09:55:49.890Z,42.43
2018-09-29T09:58:17.787Z,42.46
2018-09-29T10:00:51.164Z,40.96
2018-09-29T10:03:30.390Z,40.04
2018-09-29T10:05:58.351Z,39.24
2018-09-29T10:08:26.162Z,40.17
2018-09-29T10:10:54.325Z,39.24
2018-09-29T10:13:22.191Z,39.60
2018-09-29T10:15:50.229Z,38.87
2018-09-29T10:18:18.448Z,37.92
2018-09-29T10:20:46.271Z,38.14
2018-09-29T10:23:14.063Z,38.20
2018-09-29T10:25:41.969Z,38.23
2018-09-29T10:28:09.820Z,37.54
2018-09-29T10:30:37.687Z,37.31
2018-09-29T10:33:05.507Z,37.11
2018-09-29T10:35:33.290Z,37.74
2018-09-29T10:38:01.672Z,36.26
2018-09-29T10:40:29.538Z,35.62
2018-09-29T10:42:57.357Z,36.04
2018-09-29T10:45:25.184Z,35.32
2018-09-29T10:47:53.780Z,36.38
2018-09-29T10:50:21.596Z,36.90
2018-09-29T10:52:49.428Z,35.62
2018-09-29T10:55:17.241Z,36.21
2018-09-29T10:57:45.464Z,35.33
2018-09-29T11:00:13.267Z,36.60
2018-09-29T11:02:41.219Z,35.41
2018-09-29T11:05:09.032Z,35.19
2018-09-29T11:07:37.098Z,34.67
2018-09-29T11:10:04.960Z,33.70
2018-09-29T11:12:32.819Z,34.93
2018-09-29T11:15:00.770Z,33.42
2018-09-29T11:17:28.536Z,33.95
2018-09-29T11:19:56.726Z,33.31
2018-09-29T11:22:24.642Z,33.87
2018-09-29T11:24:52.577Z,32.32
2018-09-29T11:27:20.846Z,32.49
2018-09-29T11:29:48.711Z,31.64
2018-09-29T11:32:16.501Z,32.01
2018-09-29T11:34:44.401Z,32.43
2018-09-29T11:37:12.989Z,31.73
2018-09-29T11:39:40.831Z,31.29
2018-09-29T11:42:08.708Z,31.50
2018-09-29T11:44:36.845Z,31.19
2018-09-29T11:47:04.635Z,32.15
2018-09-29T11:49:32.406Z,31.82
2018-09-29T11:52:00.251Z,32.06
2018-09-29T11:54:28.107Z,31.08
2018-09-29T11:56:56.000Z,30.51
2018-09-29T11:59:23.848Z,31.04
2018-09-29T12:01:51.732Z,32.29
2018-09-29T12:04:19.505Z,31.79
2018-09-29T12:06:47.356Z,31.35
2018-09-29T12:09:15.167Z,31.65
2018-09-29T12:11:43.089Z,30.77
2018-09-29T12:14:10.923Z,30.20
2018-09-29T12:16:38.719Z,31.48
2018-09-29T12:19:06.509Z,32.26
2018-09-29T12:21:34.275Z,32.50
2018-09-29T12:24:02.078Z,31.13
2018-09-29T12:26:29.895Z,31.02
2018-09-29T12:28:57.678Z,30.35
2018-09-29T12:31:25.519Z,30.44
2018-09-29T12:33:53.551Z,30.09
2018-09-29T12:36:21.843Z,30.93
2018-09-29T12:38:49.651Z,31.19
2018-09-29T12:41:17.420Z,30.34
2018-09-29T12:43:45.255Z,31.91
2018-09-29T12:46:13.089Z,30.96
2018-09-29T12:48:40.947Z,30.70
2018-09-29T12:51:08.820Z,29.72
2018-09-29T12:53:36.775Z,30.66
2018-09-29T12:56:07.871Z,31.01
2018-09-29T12:58:35.646Z,30.89
2018-09-29T13:01:03.495Z,29.86
2018-09-29T13:03:31.277Z,31.15
2018-09-29T13:05:59.208Z,31.35
2018-09-29T13:08:27.095Z,30.50
2018-09-29T13:10:55.108Z,30.75
2018-09-29T13:13:22.916Z,31.35
2018-09-29T13:15:50.781Z,30.01
2018-09-29T13:18:18.667Z,30.33
2018-09-29T13:20:46.467Z,30.19
2018-09-29T13:23:14.728Z,30.30
2018-09-29T13:25:42.620Z,30.28
2018-09-29T13:28:10.503Z,31.50
2018-09-29T13:30:38.291Z,30.79
2018-09-29T13:33:06.145Z,30.47
2018-09-29T13:35:34.024Z,30.33
2018-09-29T13:38:01.843Z,30.33
2018-09-29T13:40:29.667Z,30.60
2018-09-29T13:42:57.839Z,29.92
2018-09-29T13:45:25.612Z,30.18
2018-09-29T13:47:53.376Z,30.54
2018-09-29T13:50:21.207Z,30.66
2018-09-29T13:52:49.054Z,30.96
2018-09-29T13:55:16.879Z,30.22
2018-09-29T13:57:44.686Z,30.18
2018-09-29T14:00:12.480Z,30.65
2018-09-29T14:02:40.260Z,29.69
2018-09-29T14:05:08.064Z,30.00
2018-09-29T14:07:35.891Z,31.05
2018-09-29T14:10:03.854Z,30.45
2018-09-29T14:12:31.674Z,30.50
2018-09-29T14:14:59.487Z,30.36
2018-09-29T14:17:27.281Z,30.16
2018-09-29T14:19:55.161Z,31.08
2018-09-29T14:22:22.883Z,30.27
2018-09-29T14:24:50.869Z,30.89
2018-09-29T14:27:18.720Z,29.91
2018-09-29T14:29:50.347Z,31.66
2018-09-29T14:32:18.443Z,30.86
2018-09-29T14:34:46.281Z,31.12
2018-09-29T14:37:14.337Z,31.46
2018-09-29T14:39:42.146Z,31.27
2018-09-29T14:42:09.971Z,31.05
2018-09-29T14:44:37.782Z,31.08
2018-09-29T14:47:05.727Z,31.03
2018-09-29T14:49:33.533Z,31.84
2018-09-29T14:52:01.321Z,31.66
2018-09-29T14:54:29.102Z,31.93
2018-09-29T14:56:56.912Z,31.96
2018-09-29T14:59:24.695Z,32.16
2018-09-29T15:01:52.496Z,31.37
2018-09-29T15:04:20.308Z,31.86
2018-09-29T15:06:48.039Z,32.41
2018-09-29T15:09:15.819Z,32.61
2018-09-29T15:11:43.998Z,33.17
2018-09-29T15:14:11.867Z,33.24
2018-09-29T15:16:39.714Z,32.21
2018-09-29T15:19:07.520Z,32.70
2018-09-29T15:21:35.317Z,33.33
2018-09-29T15:24:03.122Z,33.30
2018-09-29T15:26:31.212Z,33.90
2018-09-29T15:28:59.014Z,33.88
2018-09-29T15:31:30.594Z,34.05
2018-09-29T15:33:58.371Z,33.98
2018-09-29T15:36:26.155Z,34.95
2018-09-29T15:38:53.934Z,33.81
2018-09-29T15:41:21.720Z,34.26
2018-09-29T15:43:49.560Z,34.99
2018-09-29T15:46:17.377Z,34.89
2018-09-29T15:48:45.303Z,35.12
2018-09-29T15:51:13.599Z,35.07
2018-09-29T15:53:41.407Z,35.59
2018-09-29T15:56:09.240Z,35.94
2018-09-29T15:58:37.027Z,35.34
2018-09-29T16:01:04.842Z,35.83
2018-09-29T16:03:32.879Z,36.34
2018-09-29T16:06:00.695Z,36.37
2018-09-29T16:08:28.493Z,36.10
2018-09-29T16:10:56.321Z,36.44
2018-09-29T16:13:24.119Z,37.17
2018-09-29T16:15:52.008Z,36.73
2018-09-29T16:18:19.813Z,36.03
2018-09-29T16:20:47.607Z,36.96
2018-09-29T16:23:15.407Z,36.50
2018-09-29T16:25:43.229Z,36.97
2018-09-29T16:28:10.995Z,37.00
2018-09-29T16:30:38.796Z,37.65
2018-09-29T16:33:07.018Z,37.47
2018-09-29T16:35:34.882Z,37.45
2018-09-29T16:38:02.755Z,37.98
2018-09-29T16:40:30.762Z,38.05
2018-09-29T16:43:00.720Z,37.69
2018-09-29T16:45:28.665Z,38.81
2018-09-29T16:47:56.801Z,38.62
2018-09-29T16:50:24.634Z,38.34
2018-09-29T16:52:52.479Z,38.23
2018-09-29T16:55:20.318Z,38.42
2018-09-29T16:57:48.161Z,38.98
2018-09-29T17:00:16.117Z,38.55
2018-09-29T17:02:43.930Z,38.68
2018-09-29T17:05:11.733Z,38.30
2018-09-29T17:07:39.604Z,39.35
2018-09-29T17:10:07.429Z,39.03
2018-09-29T17:12:35.217Z,39.88
2018-09-29T17:15:03.028Z,39.26
2018-09-29T17:17:31.126Z,39.54
2018-09-29T17:19:58.961Z,39.86
2018-09-29T17:22:26.756Z,39.55
2018-09-29T17:24:54.933Z,39.98
2018-09-29T17:27:22.742Z,40.12
2018-09-29T17:29:50.545Z,40.28
2018-09-29T17:32:18.495Z,39.71
2018-09-29T17:34:46.269Z,39.77
2018-09-29T17:37:14.812Z,40.10
2018-09-29T17:39:42.867Z,40.42
2018-09-29T17:42:10.786Z,40.51
2018-09-29T17:44:38.630Z,39.82
2018-09-29T17:47:06.447Z,40.90
2018-09-29T17:49:34.319Z,40.88
2018-09-29T17:52:02.203Z,40.65
2018-09-29T17:54:29.998Z,41.09
2018-09-29T17:56:57.967Z,41.43
2018-09-29T17:59:26.603Z,41.42
2018-09-29T18:01:54.501Z,41.32
2018-09-29T18:04:22.371Z,40.72
2018-09-29T18:06:50.178Z,41.41
2018-09-29T18:09:18.007Z,41.24
2018-09-29T18:11:45.822Z,41.17
2018-09-29T18:14:13.623Z,41.29
2018-09-29T18:16:41.504Z,41.99
2018-09-29T18:19:09.318Z,42.18
2018-09-29T18:21:37.284Z,42.19
2018-09-29T18:24:05.031Z,42.00
2018-09-29T18:26:32.824Z,42.67
2018-09-29T18:29:00.991Z,42.76
2018-09-29T18:31:32.962Z,42.86
2018-09-29T18:34:02.056Z,43.01
2018-09-29T18:36:29.955Z,43.09
2018-09-29T18:38:57.863Z,42.90
2018-09-29T18:41:25.840Z,43.30
2018-09-29T18:43:53.934Z,43.06
2018-09-29T18:46:21.984Z,43.45
2018-09-29T18:48:49.936Z,43.76
2018-09-29T18:51:17.693Z,43.91
2018-09-29T18:53:45.551Z,43.82
2018-09-29T18:56:13.464Z,44.33
2018-09-29T18:58:41.383Z,44.63
2018-09-29T19:01:09.187Z,44.38
2018-09-29T19:03:36.966Z,44.38
2018-09-29T19:06:04.808Z,44.67
2018-09-29T19:08:32.731Z,45.74
2018-09-29T19:11:00.764Z,44.79
2018-09-29T19:13:28.679Z,45.47
2018-09-29T19:15:56.475Z,45.97
2018-09-29T19:18:24.577Z,46.38
2018-09-29T19:20:52.378Z,46.13
2018-09-29T19:23:20.183Z,45.67
2018-09-29T19:25:48.244Z,46.47
2018-09-29T19:34:30.400Z,47.21
2018-09-29T19:37:05.419Z,46.61
2018-09-29T19:39:33.285Z,47.08
2018-09-29T19:42:01.208Z,47.46
2018-09-29T19:44:29.175Z,47.78
2018-09-29T19:46:56.954Z,47.34
2018-09-29T19:49:24.762Z,47.81
2018-09-29T19:51:52.588Z,47.48
2018-09-29T19:54:20.478Z,47.65
2018-09-29T19:56:48.554Z,47.57
2018-09-29T19:59:17.104Z,47.97
2018-09-29T20:01:45.207Z,47.56
2018-09-29T20:04:13.146Z,47.56
2018-09-29T20:06:41.139Z,48.78
2018-09-29T20:09:09.819Z,49.60
2018-09-29T20:11:37.647Z,50.40
2018-09-29T20:14:05.780Z,50.99
2018-09-29T20:16:33.844Z,51.61
2018-09-29T20:19:01.812Z,51.96
2018-09-29T20:21:29.695Z,51.82
2018-09-29T20:23:57.531Z,52.48
2018-09-29T20:26:25.483Z,52.79
2018-09-29T20:28:53.381Z,53.01
2018-09-29T20:31:21.206Z,52.58
2018-09-29T20:33:48.991Z,52.58
2018-09-29T20:36:16.884Z,52.98
2018-09-29T20:38:44.711Z,54.18
2018-09-29T20:41:12.918Z,53.98
2018-09-29T20:43:40.899Z,54.17
2018-09-29T20:46:08.775Z,54.41
2018-09-29T20:48:36.596Z,54.48
2018-09-29T20:51:04.415Z,54.61
2018-09-29T20:53:32.342Z,55.31
2018-09-29T20:56:00.104Z,55.06
2018-09-29T20:58:28.236Z,55.37
2018-09-29T21:00:56.011Z,56.02
2018-09-29T21:03:23.835Z,55.67
2018-09-29T21:05:51.653Z,56.05
2018-09-29T21:08:19.750Z,56.38
2018-09-29T21:10:47.562Z,56.60
2018-09-29T21:13:15.479Z,56.96
2018-09-29T21:15:47.315Z,57.15
2018-09-29T21:18:15.094Z,56.90
2018-09-29T21:20:42.893Z,57.32
2018-09-29T21:23:11.047Z,57.30
2018-09-29T21:25:38.843Z,57.55
2018-09-29T21:28:06.731Z,57.75
2018-09-29T21:30:34.549Z,57.78
2018-09-29T21:33:02.413Z,58.31
2018-09-29T21:35:30.685Z,57.63
2018-09-29T21:37:58.471Z,58.30
2018-09-29T21:40:26.263Z,57.80
2018-09-29T21:42:54.271Z,57.98
2018-09-29T21:45:22.157Z,58.21
2018-09-29T21:47:49.963Z,58.64
2018-09-29T21:50:17.774Z,58.65
2018-09-29T21:52:45.675Z,58.86
2018-09-29T21:55:13.604Z,58.92
2018-09-29T21:57:41.394Z,59.19
2018-09-29T22:00:09.555Z,59.69
2018-09-29T22:02:37.352Z,59.70
2018-09-29T22:05:05.199Z,59.83
2018-09-29T22:07:33.010Z,59.67
2018-09-29T22:10:00.803Z,59.84
2018-09-29T22:12:28.603Z,59.79
2018-09-29T22:14:56.388Z,59.96
2018-09-29T22:17:28.263Z,59.85
2018-09-29T22:19:56.219Z,59.53
2018-09-29T22:22:24.027Z,59.79
2018-09-29T22:24:51.832Z,60.22
2018-09-29T22:27:19.707Z,60.12
2018-09-29T22:29:47.493Z,60.12
2018-09-29T22:32:15.304Z,59.94
2018-09-29T22:34:43.102Z,59.69
2018-09-29T22:37:10.887Z,59.70
2018-09-29T22:39:38.666Z,60.11
2018-09-29T22:42:06.695Z,59.96
2018-09-29T22:44:34.515Z,59.71
2018-09-29T22:47:02.304Z,59.00
2018-09-29T22:49:30.156Z,58.77
2018-09-29T22:51:57.953Z,58.22
2018-09-29T22:54:25.767Z,58.33
2018-09-29T22:56:53.578Z,57.98
2018-09-29T22:59:21.372Z,58.15
2018-09-29T23:01:49.230Z,58.24
2018-09-29T23:04:17.027Z,58.41
2018-09-29T23:06:44.850Z,59.18
2018-09-29T23:09:12.660Z,58.79
2018-09-29T23:11:40.527Z,58.84
2018-09-29T23:14:08.629Z,59.19
2018-09-29T23:16:36.463Z,59.25
2018-09-29T23:19:04.349Z,59.60
2018-09-29T23:21:32.107Z,60.08
2018-09-29T23:24:00.164Z,59.91
2018-09-29T23:26:28.250Z,59.83
2018-09-29T23:28:56.024Z,59.78
2018-09-29T23:31:23.823Z,60.09
2018-09-29T23:33:51.608Z,60.48
2018-09-29T23:36:19.627Z,60.64
2018-09-29T23:38:47.467Z,60.17
2018-09-29T23:41:15.260Z,60.41
2018-09-29T23:43:43.040Z,59.74
2018-09-29T23:46:14.563Z,60.07
2018-09-29T23:48:42.351Z,60.28
2018-09-29T23:51:10.155Z,60.63
2018-09-29T23:53:37.982Z,60.47
2018-09-29T23:56:06.091Z,60.86
2018-09-29T23:58:33.967Z,60.83
